Time;durP1;ratioP1;P1;durP2;ratioP2;P2;SDS_P1;SDS_P2;PMS_P1;PMS_P2;Temp;Humidity;BMP_temperature;BMP_pressure;BME280_temperature;BME280_humidity;BME280_pressure;Samples;Min_cycle;Max_cycle;Signal;HPM_P1;HPM_P2
2021/11/09 00:00:52;;;;;;;28.63;12.23;;;7.40;93.70;;;;;;5047228;28;20060;-76
2021/11/09 00:03:19;;;;;;;32.85;13.90;;;7.40;93.90;;;;;;5078143;28;20021;-76
2021/11/09 00:06:00;;;;;;;25.90;13.82;;;7.40;93.70;;;;;;5076403;28;20044;-76
2021/11/09 00:11:16;;;;;;;27.42;14.35;;;7.30;93.70;;;;;;5035541;28;20029;-77
2021/11/09 00:13:43;;;;;;;24.85;13.18;;;7.30;93.70;;;;;;5055157;28;20032;-77
2021/11/09 00:16:09;;;;;;;26.25;14.07;;;7.20;93.80;;;;;;5057540;28;20025;-76
2021/11/09 00:18:35;;;;;;;36.13;15.98;;;7.20;93.90;;;;;;5060919;28;20112;-77
2021/11/09 00:21:01;;;;;;;31.35;14.00;;;7.20;94.20;;;;;;5036192;28;20060;-77
2021/11/09 00:23:27;;;;;;;26.58;13.90;;;7.20;94.20;;;;;;5055093;28;20024;-76
2021/11/09 00:25:53;;;;;;;28.98;13.75;;;7.20;93.90;;;;;;5054789;28;20029;-76
2021/11/09 00:28:18;;;;;;;34.03;13.35;;;7.10;93.90;;;;;;5037138;28;20025;-76
2021/11/09 00:30:44;;;;;;;30.13;14.35;;;7.10;93.80;;;;;;5054558;28;20083;-77
2021/11/09 00:33:10;;;;;;;29.73;13.55;;;7.10;93.90;;;;;;5055058;28;20607;-76
2021/11/09 00:35:37;;;;;;;39.35;14.50;;;7.00;93.90;;;;;;5036785;28;20020;-77
2021/11/09 00:38:05;;;;;;;33.88;15.43;;;7.00;94.00;;;;;;5036484;28;20083;-76
2021/11/09 00:40:33;;;;;;;34.75;14.20;;;7.00;94.10;;;;;;5054667;28;20470;-76
2021/11/09 00:42:59;;;;;;;31.23;15.15;;;7.00;94.20;;;;;;5036835;28;20452;-76
2021/11/09 00:45:25;;;;;;;37.65;15.75;;;7.00;94.20;;;;;;5054741;28;20082;-76
2021/11/09 00:47:51;;;;;;;34.60;14.27;;;7.00;94.20;;;;;;5036755;28;20426;-76
2021/11/09 00:50:19;;;;;;;36.58;15.73;;;7.00;94.30;;;;;;5054448;28;20071;-77
2021/11/09 00:52:46;;;;;;;31.10;14.00;;;6.90;94.30;;;;;;5054568;28;20032;-76
2021/11/09 00:55:13;;;;;;;30.42;13.68;;;6.90;94.30;;;;;;5054556;28;20109;-76
2021/11/09 00:57:39;;;;;;;27.60;13.23;;;6.90;94.20;;;;;;5036441;28;20036;-76
2021/11/09 01:00:06;;;;;;;26.60;14.60;;;6.90;94.20;;;;;;5054382;28;20462;-76
2021/11/09 01:02:32;;;;;;;32.72;14.90;;;6.80;94.20;;;;;;5054478;28;20025;-77
2021/11/09 01:04:58;;;;;;;31.40;14.07;;;6.80;94.20;;;;;;5054548;28;20017;-76
2021/11/09 01:07:24;;;;;;;34.00;15.00;;;6.80;94.20;;;;;;5054513;28;20363;-76
2021/11/09 01:09:50;;;;;;;28.98;13.05;;;6.80;94.20;;;;;;5036034;28;20467;-77
2021/11/09 01:12:16;;;;;;;40.65;16.08;;;6.80;94.20;;;;;;5054251;28;20017;-76
2021/11/09 01:14:43;;;;;;;36.30;14.73;;;6.80;94.30;;;;;;5035934;28;20025;-75
2021/11/09 01:17:08;;;;;;;35.15;16.00;;;6.80;94.40;;;;;;5036292;28;20020;-76
2021/11/09 01:19:34;;;;;;;29.73;15.55;;;6.80;94.40;;;;;;5053709;28;20032;-76
2021/11/09 01:22:03;;;;;;;32.33;15.18;;;6.70;94.40;;;;;;5054195;28;20032;-75
2021/11/09 01:24:29;;;;;;;43.08;14.93;;;6.70;94.40;;;;;;5035490;28;20186;-75
2021/11/09 01:26:55;;;;;;;34.05;14.80;;;6.70;94.40;;;;;;5035706;28;20029;-76
2021/11/09 01:29:20;;;;;;;37.00;15.93;;;6.70;94.40;;;;;;5053662;28;20385;-77
2021/11/09 01:31:50;;;;;;;33.00;15.25;;;6.70;94.40;;;;;;5053712;28;20029;-76
2021/11/09 01:34:16;;;;;;;37.60;16.45;;;6.70;94.40;;;;;;5036517;28;20477;-76
2021/11/09 01:36:42;;;;;;;43.10;16.73;;;6.70;94.50;;;;;;5054578;28;20021;-77
2021/11/09 01:39:08;;;;;;;34.22;15.63;;;6.70;94.50;;;;;;5054593;28;20482;-76
2021/11/09 01:41:37;;;;;;;41.20;15.35;;;6.70;94.60;;;;;;5037125;28;20033;-76
2021/11/09 01:44:04;;;;;;;33.83;15.95;;;6.60;94.60;;;;;;5054906;28;20059;-76
2021/11/09 01:46:31;;;;;;;39.45;17.27;;;6.70;94.60;;;;;;5037191;28;20025;-76
2021/11/09 01:48:56;;;;;;;30.60;15.63;;;6.70;94.60;;;;;;5055658;28;20413;-76
2021/11/09 01:51:23;;;;;;;34.00;15.63;;;6.70;94.60;;;;;;5057182;28;20057;-76
2021/11/09 01:53:51;;;;;;;32.72;15.88;;;6.60;94.50;;;;;;5060113;28;20534;-76
2021/11/09 01:56:21;;;;;;;40.15;16.02;;;6.60;94.50;;;;;;5069138;28;20013;-76
2021/11/09 01:58:48;;;;;;;31.55;15.55;;;6.60;94.50;;;;;;5058669;28;20489;-76
2021/11/09 02:01:17;;;;;;;33.17;14.98;;;6.60;94.60;;;;;;5071739;28;20025;-77
2021/11/09 02:03:49;;;;;;;38.38;16.23;;;6.60;94.60;;;;;;5035164;28;20078;-77
2021/11/09 02:06:17;;;;;;;36.97;16.42;;;6.60;94.60;;;;;;5035338;28;20032;-76
2021/11/09 02:08:42;;;;;;;43.20;17.08;;;6.60;94.60;;;;;;5035036;28;20072;-76
2021/11/09 02:11:10;;;;;;;28.30;15.55;;;6.60;94.70;;;;;;5052838;28;20052;-77
2021/11/09 02:13:36;;;;;;;28.25;15.20;;;6.60;94.70;;;;;;5035023;28;20409;-76
2021/11/09 02:16:01;;;;;;;32.35;15.77;;;6.60;94.60;;;;;;5052509;28;20521;-76
2021/11/09 02:18:27;;;;;;;41.05;18.08;;;6.60;94.70;;;;;;5053205;28;20048;-76
2021/11/09 02:21:09;;;;;;;36.30;16.25;;;6.60;94.70;;;;;;5052635;28;20040;-77
2021/11/09 02:23:36;;;;;;;38.78;16.75;;;6.60;94.70;;;;;;5035454;28;20024;-77
2021/11/09 02:26:04;;;;;;;30.83;15.55;;;6.60;94.70;;;;;;5035523;28;20120;-76
2021/11/09 02:28:30;;;;;;;32.88;16.40;;;6.60;94.70;;;;;;5053001;28;20114;-76
2021/11/09 02:30:57;;;;;;;38.22;16.20;;;6.60;94.60;;;;;;5052996;28;20025;-76
2021/11/09 02:33:22;;;;;;;30.35;15.57;;;6.50;94.60;;;;;;5052871;28;20029;-76
2021/11/09 02:35:48;;;;;;;36.05;16.02;;;6.50;94.60;;;;;;5034988;28;20054;-76
2021/11/09 02:38:14;;;;;;;32.58;15.13;;;6.50;94.60;;;;;;5053399;28;20025;-76
2021/11/09 02:40:41;;;;;;;34.25;16.08;;;6.50;94.50;;;;;;5052447;28;20083;-76
2021/11/09 02:43:11;;;;;;;32.67;16.55;;;6.50;94.50;;;;;;5052245;28;20025;-76
2021/11/09 02:48:18;;;;;;;43.30;18.17;;;6.40;94.60;;;;;;5053197;28;20068;-75
2021/11/09 02:50:49;;;;;;;40.55;16.05;;;6.40;94.50;;;;;;5034548;28;20057;-76
2021/11/09 02:56:18;;;;;;;36.10;16.40;;;6.40;94.30;;;;;;5052955;28;20107;-76
2021/11/09 03:01:29;;;;;;;39.20;15.80;;;6.40;94.50;;;;;;5052970;28;20033;-76
2021/11/09 03:06:43;;;;;;;41.78;16.25;;;6.30;94.40;;;;;;5053177;28;20029;-77
2021/11/09 03:09:19;;;;;;;35.38;16.00;;;6.30;94.70;;;;;;5053018;28;20031;-76
2021/11/09 03:11:54;;;;;;;33.60;15.57;;;6.30;94.50;;;;;;5034867;28;20021;-75
2021/11/09 03:14:22;;;;;;;30.23;15.25;;;6.20;94.50;;;;;;5053482;28;20025;-76
2021/11/09 03:16:48;;;;;;;37.20;16.15;;;6.30;94.60;;;;;;5035561;28;20033;-76
2021/11/09 03:46:32;;;;;;;32.13;15.38;;;6.10;94.50;;;;;;5058876;28;20086;-75
2021/11/09 03:48:59;;;;;;;35.55;16.02;;;6.10;94.50;;;;;;5049455;28;20036;-75
2021/11/09 03:51:25;;;;;;;35.50;17.20;;;6.10;94.50;;;;;;5056401;28;20063;-75
2021/11/09 03:53:51;;;;;;;38.20;16.48;;;6.00;94.40;;;;;;5075808;28;20101;-76
2021/11/09 03:56:25;;;;;;;34.60;16.02;;;6.00;94.40;;;;;;5059710;28;20160;-76
2021/11/09 03:58:53;;;;;;;34.15;16.73;;;6.00;94.50;;;;;;5065177;28;20028;-78
2021/11/09 04:01:23;;;;;;;43.70;16.38;;;6.00;94.50;;;;;;5057817;28;20028;-76
2021/11/09 04:19:28;;;;;;;34.53;15.25;;;5.90;94.50;;;;;;5058766;28;20037;-77
2021/11/09 04:30:25;;;;;;;38.58;15.85;;;5.80;94.80;;;;;;5055450;28;20454;-76
2021/11/09 04:44:23;;;;;;;33.22;16.20;;;5.80;94.50;;;;;;5054591;28;20473;-77
2021/11/09 05:02:12;;;;;;;47.78;19.45;;;5.70;94.60;;;;;;5054448;28;20040;-76
2021/11/09 05:10:10;;;;;;;51.67;19.38;;;5.60;94.70;;;;;;5054360;28;20063;-77
2021/11/09 05:12:36;;;;;;;35.53;17.95;;;5.60;94.70;;;;;;5054368;28;20021;-76
2021/11/09 05:15:03;;;;;;;35.97;17.02;;;5.60;94.70;;;;;;5036332;28;20025;-76
2021/11/09 05:17:28;;;;;;;53.65;22.20;;;5.60;94.70;;;;;;5054396;28;20024;-77
2021/11/09 05:19:54;;;;;;;49.25;20.15;;;5.60;94.90;;;;;;5054383;28;20033;-77
2021/11/09 05:22:19;;;;;;;36.28;18.77;;;5.60;94.90;;;;;;5054847;28;20503;-76
2021/11/09 05:24:45;;;;;;;40.92;20.02;;;5.60;94.80;;;;;;5054876;28;20017;-75
2021/11/09 05:27:15;;;;;;;42.33;19.42;;;5.60;94.80;;;;;;5054635;28;20039;-76
2021/11/09 05:29:41;;;;;;;43.17;19.90;;;5.60;94.90;;;;;;5036828;28;20143;-76
2021/11/09 05:32:07;;;;;;;36.05;19.77;;;5.60;94.90;;;;;;5036862;28;20023;-76
2021/11/09 05:34:33;;;;;;;44.72;21.30;;;5.60;95.00;;;;;;5055181;28;20396;-76
2021/11/09 05:36:59;;;;;;;46.55;22.77;;;5.60;94.90;;;;;;5056277;28;20492;-76
2021/11/09 05:42:20;;;;;;;37.88;19.75;;;5.60;95.30;;;;;;5049883;28;20033;-77
2021/11/09 05:44:46;;;;;;;52.35;22.95;;;5.60;95.30;;;;;;5049295;28;20032;-75
2021/11/09 05:47:12;;;;;;;50.22;21.77;;;5.60;95.30;;;;;;5077225;28;20017;-76
2021/11/09 05:49:39;;;;;;;47.78;21.23;;;5.60;95.40;;;;;;5055529;28;20400;-75
2021/11/09 05:52:05;;;;;;;39.80;19.08;;;5.70;95.70;;;;;;5053274;28;20017;-76
2021/11/09 05:54:30;;;;;;;39.67;19.40;;;5.60;95.30;;;;;;5035568;28;20028;-75
2021/11/09 05:56:56;;;;;;;39.20;20.40;;;5.60;95.20;;;;;;5053057;28;20477;-75
2021/11/09 05:59:22;;;;;;;40.30;20.13;;;5.60;95.20;;;;;;5037622;28;20032;-75
2021/11/09 06:01:48;;;;;;;38.22;19.13;;;5.60;95.10;;;;;;5040405;28;20025;-76
2021/11/09 06:04:14;;;;;;;44.63;19.67;;;5.60;95.00;;;;;;5053425;28;20390;-76
2021/11/09 06:06:40;;;;;;;38.35;20.92;;;5.50;94.90;;;;;;5035317;28;20035;-76
2021/11/09 06:09:06;;;;;;;35.85;18.80;;;5.50;95.00;;;;;;5053128;28;20533;-76
2021/11/09 06:11:32;;;;;;;47.58;20.88;;;5.50;95.10;;;;;;5035343;28;20114;-76
2021/11/09 06:13:57;;;;;;;41.50;20.48;;;5.50;95.00;;;;;;5034906;28;20033;-75
2021/11/09 06:16:23;;;;;;;43.00;20.30;;;5.50;95.00;;;;;;5035144;28;20279;-77
2021/11/09 06:18:49;;;;;;;46.33;20.17;;;5.50;95.00;;;;;;5052776;28;20465;-76
2021/11/09 06:21:15;;;;;;;42.20;19.88;;;5.50;95.00;;;;;;5053524;28;20034;-77
2021/11/09 06:23:41;;;;;;;38.00;20.77;;;5.40;94.90;;;;;;5052667;28;20025;-77
2021/11/09 06:26:07;;;;;;;37.42;19.48;;;5.40;94.90;;;;;;5052607;28;20025;-76
2021/11/09 06:28:32;;;;;;;49.30;20.85;;;5.40;94.80;;;;;;5053210;28;20025;-76
2021/11/09 06:30:58;;;;;;;35.30;18.17;;;5.40;94.80;;;;;;5052924;28;20079;-77
2021/11/09 06:33:24;;;;;;;49.60;20.83;;;5.40;95.00;;;;;;5035143;28;20377;-77
2021/11/09 06:35:51;;;;;;;38.17;20.50;;;5.40;95.00;;;;;;5035024;28;20381;-75
2021/11/09 06:38:17;;;;;;;50.47;20.73;;;5.40;95.00;;;;;;5034714;28;20029;-76
2021/11/09 06:40:43;;;;;;;37.95;19.27;;;5.40;95.00;;;;;;5052696;28;20033;-76
2021/11/09 06:43:09;;;;;;;46.80;20.60;;;5.40;95.00;;;;;;5052186;28;20070;-77
2021/11/09 06:45:35;;;;;;;40.03;19.13;;;5.40;95.00;;;;;;5034691;28;20115;-75
2021/11/09 06:48:02;;;;;;;39.25;17.15;;;5.40;95.00;;;;;;5052558;28;20029;-77
2021/11/09 06:50:28;;;;;;;41.38;19.42;;;5.40;94.90;;;;;;5052490;28;20067;-75
2021/11/09 06:52:53;;;;;;;49.53;21.15;;;5.40;94.90;;;;;;5052478;28;20100;-75
2021/11/09 06:55:19;;;;;;;40.65;18.88;;;5.40;95.00;;;;;;5052253;28;20025;-76
2021/11/09 06:57:45;;;;;;;44.15;18.10;;;5.50;95.00;;;;;;5052373;28;20021;-76
2021/11/09 07:00:14;;;;;;;42.08;18.40;;;5.50;95.00;;;;;;5052416;28;20171;-76
2021/11/09 07:02:41;;;;;;;41.40;19.88;;;5.50;95.00;;;;;;5034593;28;20021;-76
2021/11/09 07:05:08;;;;;;;36.92;18.45;;;5.50;95.00;;;;;;5051914;28;20026;-76
2021/11/09 07:07:33;;;;;;;42.65;17.02;;;5.50;95.00;;;;;;5052379;28;20025;-77
2021/11/09 07:10:00;;;;;;;44.92;19.60;;;5.60;95.00;;;;;;5051734;28;20029;-76
2021/11/09 07:12:25;;;;;;;43.63;18.25;;;5.60;95.00;;;;;;5052187;28;20524;-77
2021/11/09 07:14:51;;;;;;;38.58;17.30;;;5.70;95.00;;;;;;5034481;28;20028;-76
2021/11/09 07:17:17;;;;;;;48.08;18.55;;;5.90;95.10;;;;;;5052065;28;20025;-76
2021/11/09 07:19:48;;;;;;;36.70;16.02;;;6.10;94.70;;;;;;5052226;28;20451;-77
2021/11/09 07:22:15;;;;;;;46.10;19.05;;;6.20;94.40;;;;;;5052533;28;20527;-77
2021/11/09 07:24:41;;;;;;;41.17;17.67;;;6.40;94.30;;;;;;5053119;28;20103;-76
2021/11/09 07:27:07;;;;;;;31.10;15.35;;;6.70;94.20;;;;;;5034922;28;20363;-76
2021/11/09 07:29:33;;;;;;;37.45;15.80;;;7.10;93.70;;;;;;5055676;28;20028;-77
2021/11/09 07:31:58;;;;;;;29.80;13.50;;;7.40;93.10;;;;;;5058500;28;20029;-77
2021/11/09 07:34:25;;;;;;;35.30;13.05;;;7.80;92.40;;;;;;5041587;28;20017;-77
2021/11/09 07:36:51;;;;;;;31.42;13.48;;;8.30;91.60;;;;;;5046941;28;20019;-77
2021/11/09 07:39:19;;;;;;;30.02;13.90;;;8.80;90.70;;;;;;5075876;28;20025;-77
2021/11/09 07:41:45;;;;;;;35.42;13.52;;;9.20;89.50;;;;;;5078209;28;20043;-76
2021/11/09 07:44:12;;;;;;;29.50;13.23;;;9.60;87.20;;;;;;5067164;28;20111;-77
2021/11/09 07:46:39;;;;;;;29.25;11.65;;;10.10;85.00;;;;;;5055811;28;20462;-77
2021/11/09 07:49:05;;;;;;;29.85;11.55;;;10.60;83.20;;;;;;5037831;28;20373;-78
2021/11/09 07:51:30;;;;;;;28.80;12.27;;;11.00;80.90;;;;;;5037526;28;20045;-77
2021/11/09 07:54:00;;;;;;;30.92;12.02;;;11.30;79.50;;;;;;5037886;28;20381;-77
2021/11/09 07:56:32;;;;;;;27.80;12.13;;;11.60;78.20;;;;;;5055457;28;20462;-77
2021/11/09 07:59:11;;;;;;;28.85;11.85;;;11.90;76.40;;;;;;5037347;28;20397;-77
2021/11/09 08:01:48;;;;;;;27.92;10.93;;;12.30;75.60;;;;;;5055908;28;20028;-77
2021/11/09 08:04:17;;;;;;;30.90;11.90;;;12.60;73.90;;;;;;5059444;28;20485;-77
2021/11/09 08:06:52;;;;;;;26.15;11.05;;;12.90;72.30;;;;;;5056391;28;20560;-78
2021/11/09 08:09:31;;;;;;;25.48;11.60;;;13.30;71.20;;;;;;5037308;28;20044;-78
2021/11/09 08:11:59;;;;;;;24.15;10.88;;;13.50;70.00;;;;;;5037577;28;20017;-77
2021/11/09 08:14:25;;;;;;;27.42;10.23;;;13.70;69.30;;;;;;5037547;28;20017;-78
2021/11/09 08:16:50;;;;;;;27.95;10.85;;;13.90;68.90;;;;;;5055409;28;20369;-76
2021/11/09 08:19:17;;;;;;;23.73;10.43;;;14.10;69.50;;;;;;5055551;28;20029;-76
2021/11/09 08:21:43;;;;;;;26.13;9.68;;;14.30;67.70;;;;;;5055790;28;20095;-78
2021/11/09 08:24:10;;;;;;;33.35;11.98;;;14.60;67.30;;;;;;5055126;28;20021;-78
2021/11/09 08:26:37;;;;;;;22.75;8.77;;;14.80;65.80;;;;;;5037169;28;20092;-78
2021/11/09 08:29:05;;;;;;;29.55;11.43;;;15.00;67.60;;;;;;5036722;28;20107;-78
2021/11/09 08:31:36;;;;;;;30.58;10.68;;;15.10;64.70;;;;;;5055289;28;20029;-77
2021/11/09 08:34:04;;;;;;;29.33;10.25;;;15.30;63.90;;;;;;5037230;28;20500;-77
2021/11/09 08:36:31;;;;;;;24.50;9.73;;;15.40;64.00;;;;;;5054966;28;20457;-77
2021/11/09 08:38:58;;;;;;;20.42;9.85;;;15.60;64.30;;;;;;5054925;28;20029;-78
2021/11/09 08:41:27;;;;;;;25.42;10.10;;;15.70;63.40;;;;;;5035926;28;20056;-77
2021/11/09 08:44:05;;;;;;;22.23;9.68;;;15.90;63.60;;;;;;5054905;28;20111;-78
2021/11/09 08:46:35;;;;;;;22.40;8.82;;;16.10;63.20;;;;;;5037007;28;20116;-78
2021/11/09 08:49:02;;;;;;;22.50;9.70;;;16.20;62.00;;;;;;5055041;28;20028;-78
2021/11/09 08:51:28;;;;;;;22.70;9.07;;;16.50;63.50;;;;;;5054259;28;20049;-78
2021/11/09 08:53:57;;;;;;;27.25;10.30;;;16.60;61.80;;;;;;5036813;28;20067;-78
